Time;durP1;ratioP1;P1;durP2;ratioP2;P2;SDS_P1;SDS_P2;PMS_P1;PMS_P2;Temp;Humidity;BMP_temperature;BMP_pressure;BME280_temperature;BME280_humidity;BME280_pressure;Samples;Min_cycle;Max_cycle;Signal;HPM_P1;HPM_P2
2022/12/27 00:01:36;;;;;;;38.97;22.48;;;;;;;5.31;82.37;101623.31;6247340;23;20012;-84
2022/12/27 00:04:09;;;;;;;40.72;21.88;;;;;;;5.26;82.40;101613.78;6249515;23;20036;-84
2022/12/27 00:06:37;;;;;;;38.30;21.52;;;;;;;5.32;82.46;101628.53;6253192;23;20039;-84
2022/12/27 00:09:06;;;;;;;37.45;21.10;;;;;;;5.26;82.54;101619.13;6223933;23;20404;-85
2022/12/27 00:11:32;;;;;;;35.70;20.50;;;;;;;5.48;81.78;101621.22;6197997;23;20081;-85
2022/12/27 00:14:01;;;;;;;33.72;20.02;;;;;;;5.28;81.30;101574.56;6222456;23;20073;-84
2022/12/27 00:16:27;;;;;;;33.92;20.92;;;;;;;5.53;81.34;101615.56;6247891;22;20046;-85
2022/12/27 00:18:53;;;;;;;36.40;21.67;;;;;;;5.57;80.97;101621.53;6242827;23;20004;-83
2022/12/27 00:21:19;;;;;;;39.53;21.70;;;;;;;5.46;80.76;101603.63;6217185;23;20016;-83
2022/12/27 00:23:48;;;;;;;40.83;21.83;;;;;;;5.58;80.63;101618.78;6222302;23;20094;-85
2022/12/27 00:26:21;;;;;;;37.10;21.38;;;;;;;5.58;80.31;101599.25;6253739;23;20007;-90
2022/12/27 00:28:51;;;;;;;41.30;21.75;;;;;;;5.58;80.09;101600.09;6246591;22;20389;-85
2022/12/27 00:31:18;;;;;;;37.80;21.50;;;;;;;5.55;80.30;101594.97;6242016;23;20015;-84
2022/12/27 00:33:46;;;;;;;40.97;22.98;;;;;;;5.60;80.15;101602.66;6239358;23;20299;-84
2022/12/27 00:36:18;;;;;;;36.30;21.35;;;;;;;5.50;80.24;101589.09;6216413;23;20003;-83
2022/12/27 00:38:45;;;;;;;38.75;23.13;;;;;;;5.59;79.92;101595.59;6244713;23;20075;-85
2022/12/27 00:41:13;;;;;;;40.88;24.67;;;;;;;5.50;79.65;101570.41;6224525;23;20412;-82
2022/12/27 00:43:39;;;;;;;38.70;23.83;;;;;;;5.59;79.42;101583.13;6222189;23;20062;-82
2022/12/27 00:46:04;;;;;;;43.40;25.60;;;;;;;5.53;79.94;101598.72;6218572;22;20012;-84
2022/12/27 00:48:32;;;;;;;43.95;26.77;;;;;;;5.42;80.06;101586.94;6244236;23;20004;-83
2022/12/27 00:51:42;;;;;;;47.17;27.85;;;;;;;5.55;79.81;101586.97;6243525;23;20432;-85
2022/12/27 00:54:13;;;;;;;40.15;24.25;;;;;;;5.29;80.40;101575.41;6266106;22;20008;-82
2022/12/27 00:56:38;;;;;;;40.25;22.85;;;;;;;5.26;80.79;101580.94;6267930;22;20262;-83
2022/12/27 00:59:09;;;;;;;37.95;22.42;;;;;;;5.19;80.51;101567.19;6249569;22;20007;-84
2022/12/27 01:01:37;;;;;;;42.33;22.83;;;;;;;5.31;80.74;101575.31;6220101;22;20004;-85
2022/12/27 01:04:05;;;;;;;34.28;21.20;;;;;;;5.34;80.17;101577.75;6196629;22;20035;-83
2022/12/27 01:06:33;;;;;;;36.83;21.30;;;;;;;5.44;80.20;101578.84;6246289;22;20096;-84
2022/12/27 01:09:00;;;;;;;37.10;22.83;;;;;;;5.24;79.68;101541.09;6232647;22;20005;-84
2022/12/27 01:11:27;;;;;;;33.47;21.08;;;;;;;5.39;79.48;101557.00;6247511;22;20000;-85
2022/12/27 01:13:57;;;;;;;33.03;19.95;;;;;;;5.52;79.04;101571.16;6223304;22;20014;-85
2022/12/27 01:19:44;;;;;;;36.40;20.27;;;;;;;5.37;79.09;101532.22;6286622;22;20130;-83
2022/12/27 01:22:13;;;;;;;34.20;19.90;;;;;;;5.39;79.19;101547.16;6275897;22;20018;-83
2022/12/27 01:24:39;;;;;;;41.28;21.38;;;;;;;5.41;78.98;101542.59;6274663;22;20070;-82
2022/12/27 01:27:06;;;;;;;35.10;20.67;;;;;;;5.51;78.91;101556.13;6248182;22;20000;-83
2022/12/27 01:29:32;;;;;;;35.83;21.45;;;;;;;5.43;79.02;101546.00;6247817;22;20082;-83
2022/12/27 01:31:58;;;;;;;37.70;20.73;;;;;;;5.45;78.81;101538.72;6247995;22;19999;-83
2022/12/27 01:34:24;;;;;;;36.70;20.75;;;;;;;5.49;79.33;101552.72;6276255;22;20296;-83
2022/12/27 01:36:49;;;;;;;35.07;20.77;;;;;;;5.44;78.94;101541.50;6221872;22;20003;-84
2022/12/27 01:39:15;;;;;;;38.00;20.77;;;;;;;5.06;79.84;101521.00;6220210;22;20699;-83
2022/12/27 01:44:48;;;;;;;35.00;21.02;;;;;;;5.23;79.73;101558.03;6251372;22;20038;-84
2022/12/27 01:47:19;;;;;;;38.13;20.85;;;;;;;4.96;80.94;101551.88;6248996;22;20004;-84
2022/12/27 01:50:11;;;;;;;36.17;21.75;;;;;;;5.02;80.58;101540.81;6248325;22;20082;-85
2022/12/27 01:53:11;;;;;;;35.03;21.17;;;;;;;5.15;80.08;101544.38;6252677;22;20026;-86
2022/12/27 01:55:58;;;;;;;38.30;20.83;;;;;;;5.13;80.46;101546.28;6241795;22;20361;-84
2022/12/27 01:58:39;;;;;;;39.25;21.20;;;;;;;4.97;80.60;101534.97;6216821;23;20015;-84
2022/12/27 02:01:10;;;;;;;37.47;21.35;;;;;;;5.01;80.82;101523.09;6244187;22;20042;-82
2022/12/27 02:04:06;;;;;;;36.65;21.67;;;;;;;4.86;81.15;101520.53;6232938;23;20083;-85
2022/12/27 02:06:34;;;;;;;37.03;20.77;;;;;;;4.93;81.09;101522.78;6192547;23;20088;-86
2022/12/27 02:09:15;;;;;;;42.17;21.20;;;;;;;4.86;80.77;101501.03;6217517;23;20011;-85
2022/12/27 02:11:52;;;;;;;37.58;21.38;;;;;;;4.90;80.79;101513.19;6199621;22;20066;-84
2022/12/27 02:14:52;;;;;;;40.65;22.25;;;;;;;4.95;80.30;101511.06;6195015;23;20444;-83
2022/12/27 02:17:29;;;;;;;39.63;21.90;;;;;;;5.01;80.31;101509.78;6224875;23;20388;-85
2022/12/27 02:20:21;;;;;;;38.40;21.33;;;;;;;5.08;80.10;101522.59;6220298;22;20016;-84
2022/12/27 02:26:13;;;;;;;38.92;21.92;;;;;;;4.92;80.99;101521.94;6243729;22;20455;-84
2022/12/27 02:29:14;;;;;;;41.00;22.70;;;;;;;4.94;80.88;101517.38;6217300;23;20000;-83
2022/12/27 02:32:03;;;;;;;43.83;23.20;;;;;;;4.90;80.82;101523.00;6244595;22;20089;-84
2022/12/27 02:34:52;;;;;;;39.38;21.85;;;;;;;4.81;81.30;101511.13;6216391;22;20012;-84
2022/12/27 02:37:19;;;;;;;39.78;21.33;;;;;;;4.47;81.62;101472.56;6193231;23;20008;-82
2022/12/27 02:39:48;;;;;;;36.42;21.77;;;;;;;4.71;81.35;101500.25;6218642;23;20015;-84
2022/12/27 02:54:40;;;;;;;40.35;22.75;;;;;;;4.69;81.74;101502.16;6249318;22;20026;-84
2022/12/27 02:57:23;;;;;;;41.83;23.38;;;;;;;4.66;81.71;101491.72;6099028;23;20066;-86
2022/12/27 03:03:23;;;;;;;45.17;25.75;;;;;;;4.58;82.66;101500.19;6245624;22;20070;-84
2022/12/27 03:09:06;;;;;;;47.95;26.80;;;;;;;4.59;82.75;101506.41;6251700;22;20305;-86
2022/12/27 03:17:26;;;;;;;40.53;22.23;;;;;;;4.67;82.29;101481.91;6223541;23;20047;-85
2022/12/27 03:25:30;;;;;;;47.13;26.85;;;;;;;4.64;81.76;101478.50;6212848;23;20023;-87
2022/12/27 03:34:34;;;;;;;44.35;26.17;;;;;;;4.54;82.81;101471.22;6227769;23;20104;-82
2022/12/27 03:40:05;;;;;;;47.45;27.48;;;;;;;4.58;82.54;101484.22;6254095;22;20345;-85
2022/12/27 03:46:32;;;;;;;46.60;27.30;;;;;;;4.58;82.41;101478.88;6227815;23;20035;-85
2022/12/27 03:48:10;;;;;;;54.13;27.58;;;;;;;4.57;82.59;101479.84;6232401;23;20072;-86
2022/12/27 03:50:47;;;;;;;50.90;27.63;;;;;;;4.58;82.54;101478.03;6249508;23;20003;-83
2022/12/27 03:53:39;;;;;;;42.38;25.52;;;;;;;4.46;82.49;101460.22;6225284;23;19996;-85
2022/12/27 03:56:10;;;;;;;37.38;22.83;;;;;;;4.54;82.34;101466.75;6251614;22;20016;-85
2022/12/27 03:58:38;;;;;;;37.28;21.85;;;;;;;4.77;81.70;101467.84;6253797;22;20048;-85
2022/12/27 04:01:07;;;;;;;44.90;25.55;;;;;;;4.95;81.11;101476.41;6256664;22;20079;-85
2022/12/27 04:03:33;;;;;;;40.13;22.88;;;;;;;4.84;80.50;101439.84;6231177;22;20031;-87
2022/12/27 04:06:00;;;;;;;39.50;22.52;;;;;;;4.92;80.19;101435.81;6234621;22;20010;-87
2022/12/27 04:36:03;;;;;;;43.50;24.63;;;;;;;4.79;80.14;101447.28;6255717;22;20371;-85
2022/12/27 04:38:33;;;;;;;43.50;26.65;;;;;;;4.83;80.04;101445.28;6226816;22;20246;-85
2022/12/27 04:55:20;;;;;;;58.75;33.13;;;;;;;4.51;80.82;101458.94;6255485;22;20050;-86
2022/12/27 04:57:45;;;;;;;67.78;35.60;;;;;;;4.26;81.58;101461.53;6251045;22;20016;-86
2022/12/27 05:02:55;;;;;;;72.28;34.92;;;;;;;4.05;81.89;101450.47;6256445;22;20018;-87
2022/12/27 05:05:21;;;;;;;67.70;35.42;;;;;;;3.81;82.25;101435.13;6253358;22;20003;-87
2022/12/27 05:16:06;;;;;;;59.40;32.38;;;;;;;4.08;82.59;101452.94;6251977;22;20038;-84
2022/12/27 05:18:36;;;;;;;57.05;30.77;;;;;;;4.15;82.03;101454.25;6249306;22;20007;-87
2022/12/27 05:21:06;;;;;;;57.47;30.63;;;;;;;4.14;81.92;101452.53;6260265;22;20008;-83
2022/12/27 05:26:22;;;;;;;57.67;30.00;;;;;;;3.83;81.71;101422.59;6254710;22;20373;-85
2022/12/27 05:28:50;;;;;;;52.78;28.88;;;;;;;4.10;81.39;101459.03;6251972;22;20011;-84
2022/12/27 05:31:17;;;;;;;49.20;29.23;;;;;;;3.94;81.46;101441.38;6253542;22;20044;-85
2022/12/27 05:33:43;;;;;;;53.80;28.77;;;;;;;3.85;81.66;101441.97;6224042;22;20513;-83
2022/12/27 05:36:11;;;;;;;49.38;28.35;;;;;;;3.99;81.48;101457.91;6250605;22;20393;-84
2022/12/27 05:38:37;;;;;;;50.50;29.00;;;;;;;3.96;81.49;101460.78;6251077;22;20082;-85
2022/12/27 05:41:02;;;;;;;49.37;28.10;;;;;;;3.91;81.59;101459.34;6224183;22;20020;-85
2022/12/27 05:43:29;;;;;;;46.85;25.77;;;;;;;3.92;81.85;101461.91;6225958;22;20237;-85
2022/12/27 05:45:56;;;;;;;43.78;23.55;;;;;;;3.93;81.83;101450.34;6226231;22;19996;-84
2022/12/27 05:48:23;;;;;;;38.13;20.50;;;;;;;4.17;81.56;101457.69;6250292;22;20007;-84
2022/12/27 05:50:49;;;;;;;37.45;20.75;;;;;;;4.10;80.84;101416.47;6250517;22;19996;-87
2022/12/27 05:53:19;;;;;;;29.47;18.07;;;;;;;4.52;80.06;101452.69;6250494;22;20012;-83
2022/12/27 05:55:59;;;;;;;35.92;19.17;;;;;;;4.72;79.29;101446.00;6247700;23;20369;-83
2022/12/27 05:58:25;;;;;;;32.63;19.10;;;;;;;4.84;78.90;101447.81;6247929;23;20008;-84
2022/12/27 06:00:51;;;;;;;34.80;20.50;;;;;;;4.99;78.47;101451.28;6243008;22;20019;-85
2022/12/27 06:03:18;;;;;;;35.63;20.93;;;;;;;4.96;77.39;101447.94;6219113;23;20004;-84
2022/12/27 06:05:46;;;;;;;41.33;24.20;;;;;;;4.90;76.84;101421.75;6244107;23;20255;-84
2022/12/27 06:08:13;;;;;;;44.35;24.55;;;;;;;4.84;76.24;101410.53;6243100;22;20004;-84
2022/12/27 06:10:40;;;;;;;44.75;23.60;;;;;;;4.96;76.10;101434.63;6241994;23;20019;-85
2022/12/27 06:13:06;;;;;;;44.97;24.70;;;;;;;4.96;75.72;101426.63;6242629;23;20054;-84
2022/12/27 06:15:32;;;;;;;42.28;23.17;;;;;;;4.99;75.67;101437.94;6241964;23;20019;-88
2022/12/27 06:17:58;;;;;;;;;;;;;;;5.06;75.90;101446.38;6245843;23;20023;-84
2022/12/27 06:20:24;;;;;;;38.15;20.73;;;;;;;4.95;76.82;101448.91;6245921;23;19907;-83
2022/12/27 06:22:51;;;;;;;43.13;23.30;;;;;;;4.85;76.33;101420.25;6218684;23;20015;-82
2022/12/27 06:25:19;;;;;;;41.10;21.38;;;;;;;5.17;76.09;101443.78;6224078;23;20674;-85
2022/12/27 06:27:45;;;;;;;39.17;21.58;;;;;;;5.21;75.91;101439.13;6262157;23;20008;-84
2022/12/27 06:30:17;;;;;;;38.00;20.77;;;;;;;5.39;75.42;101452.97;6261026;23;20012;-86
2022/12/27 06:32:48;;;;;;;38.28;20.42;;;;;;;5.37;75.78;101460.22;6265715;22;20012;-84
2022/12/27 06:35:15;;;;;;;35.08;20.30;;;;;;;5.29;76.10;101447.41;6258643;23;20071;-85
2022/12/27 06:37:57;;;;;;;34.13;19.60;;;;;;;5.38;75.93;101436.09;6227168;23;20019;-85
2022/12/27 06:40:36;;;;;;;34.08;19.35;;;;;;;5.34;75.96;101437.31;6252969;23;20012;-86
2022/12/27 06:43:04;;;;;;;33.50;18.70;;;;;;;5.40;75.78;101444.00;6227671;23;20025;-85
2022/12/27 06:45:45;;;;;;;36.20;20.50;;;;;;;5.61;75.46;101453.16;6248283;23;20031;-85
2022/12/27 06:48:11;;;;;;;40.17;20.30;;;;;;;5.59;75.05;101460.41;6256462;23;20015;-85
2022/12/27 06:50:37;;;;;;;36.40;21.95;;;;;;;5.67;74.60;101447.38;6257560;23;20024;-86
2022/12/27 06:53:05;;;;;;;49.10;28.60;;;;;;;5.72;74.97;101458.56;6249498;23;20024;-83
2022/12/27 07:04:32;;;;;;;67.53;36.72;;;;;;;5.81;75.03;101459.72;6304416;22;20079;-86
2022/12/27 07:06:59;;;;;;;67.13;38.15;;;;;;;5.89;74.46;101452.00;6282724;22;20437;-83
2022/12/27 07:09:28;;;;;;;68.95;37.15;;;;;;;6.46;73.40;101458.56;6256966;22;20428;-85
2022/12/27 07:11:53;;;;;;;65.43;38.53;;;;;;;6.62;72.81;101457.41;6280133;22;20072;-83
2022/12/27 07:14:20;;;;;;;64.45;37.17;;;;;;;6.54;72.33;101450.81;6253992;22;20233;-84
2022/12/27 07:16:47;;;;;;;67.25;37.58;;;;;;;6.71;71.46;101462.88;6278780;22;19999;-84
2022/12/27 07:19:13;;;;;;;58.20;35.03;;;;;;;6.68;71.21;101430.22;6278714;22;20064;-86
2022/12/27 07:21:38;;;;;;;61.92;35.60;;;;;;;7.00;69.91;101438.44;6279897;22;19995;-84
2022/12/27 07:24:08;;;;;;;58.50;34.33;;;;;;;7.15;68.64;101426.53;6254871;22;20003;-84
2022/12/27 07:26:37;;;;;;;55.13;32.22;;;;;;;8.82;63.87;101409.34;6289643;22;20009;-84
2022/12/27 07:29:04;;;;;;;49.58;29.58;;;;;;;8.45;63.84;101422.34;6259750;22;20019;-86
2022/12/27 07:31:33;;;;;;;50.53;28.38;;;;;;;8.27;63.84;101437.25;6261715;22;20070;-87
2022/12/27 07:34:26;;;;;;;44.72;26.55;;;;;;;10.70;57.59;101439.19;6300030;22;20026;-86
2022/12/27 07:37:00;;;;;;;40.65;25.00;;;;;;;11.39;53.56;101402.19;6301275;22;20051;-83
2022/12/27 07:39:29;;;;;;;37.25;23.20;;;;;;;11.36;54.73;101437.50;6310236;22;20122;-84
2022/12/27 07:41:54;;;;;;;36.35;22.95;;;;;;;11.48;54.08;101427.38;6281608;22;20412;-84
2022/12/27 07:44:22;;;;;;;39.05;22.90;;;;;;;12.18;52.55;101422.34;6281551;22;19999;-86
2022/12/27 07:46:51;;;;;;;35.50;22.98;;;;;;;13.40;49.32;101419.78;6318958;22;19995;-89
2022/12/27 07:52:58;;;;;;;33.17;21.67;;;;;;;16.32;41.57;101427.19;6327238;22;20014;-90
2022/12/27 07:55:27;;;;;;;33.03;20.77;;;;;;;16.90;40.36;101417.59;6288603;22;20069;-88
2022/12/27 07:57:59;;;;;;;36.58;20.58;;;;;;;17.51;38.79;101417.47;6269892;22;20093;-87
2022/12/27 08:00:28;;;;;;;;;;;;;;;18.30;37.66;101424.94;6262138;22;20369;-85
2022/12/27 08:02:54;;;;;;;35.13;17.17;;;;;;;19.43;34.72;101414.97;6279101;22;19907;-84
2022/12/27 08:05:21;;;;;;;28.55;18.13;;;;;;;19.99;33.29;101423.06;6255867;22;20007;-86
2022/12/27 08:07:48;;;;;;;28.50;17.75;;;;;;;21.02;32.24;101414.56;6280329;22;19995;-85
2022/12/27 08:10:15;;;;;;;24.40;17.55;;;;;;;20.02;33.22;101425.34;6280520;22;20011;-85
2022/12/27 08:12:40;;;;;;;35.60;19.95;;;;;;;19.51;34.04;101420.28;6280720;22;20506;-84
2022/12/27 08:15:09;;;;;;;32.65;20.67;;;;;;;18.31;35.05;101413.88;6256424;22;20010;-84
2022/12/27 08:17:38;;;;;;;36.08;19.50;;;;;;;18.70;34.96;101426.16;6289715;22;20010;-84
2022/12/27 08:20:08;;;;;;;32.67;21.45;;;;;;;19.37;34.17;101424.81;6260358;22;19995;-84
2022/12/27 08:22:41;;;;;;;34.80;22.05;;;;;;;19.94;33.85;101425.53;6322949;22;19995;-85
2022/12/27 08:25:28;;;;;;;49.72;27.02;;;;;;;20.96;32.27;101425.53;6328028;22;20011;-90
2022/12/27 08:28:12;;;;;;;58.67;34.92;;;;;;;22.13;30.47;101424.56;6263745;22;20010;-85
2022/12/27 08:30:39;;;;;;;60.08;39.85;;;;;;;22.99;28.90;101418.72;6297520;22;20010;-85
2022/12/27 08:33:04;;;;;;;58.50;39.35;;;;;;;24.14;27.75;101426.28;6262090;22;20007;-86
2022/12/27 08:35:52;;;;;;;56.17;35.00;;;;;;;25.16;25.75;101411.56;6260361;22;20021;-86
2022/12/27 08:38:19;;;;;;;51.92;33.67;;;;;;;25.86;24.83;101400.47;6287431;22;20007;-86
2022/12/27 08:40:47;;;;;;;46.25;32.15;;;;;;;25.54;24.85;101386.28;6265981;22;20012;-86
2022/12/27 08:43:13;;;;;;;42.47;29.08;;;;;;;25.81;24.37;101389.34;6260329;22;20463;-86
2022/12/27 08:45:39;;;;;;;47.58;30.10;;;;;;;26.07;24.44;101387.09;6258867;22;20110;-86
2022/12/27 08:48:07;;;;;;;44.53;31.58;;;;;;;26.21;24.06;101385.72;6255909;22;19999;-86
2022/12/27 08:50:37;;;;;;;45.58;32.90;;;;;;;26.52;24.01;101391.75;6281054;22;20007;-86
2022/12/27 08:53:07;;;;;;;46.80;33.20;;;;;;;27.39;22.94;101371.03;6308231;22;20041;-86
2022/12/27 08:55:36;;;;;;;44.85;31.95;;;;;;;27.62;22.60;101378.25;6312164;22;20555;-86
2022/12/27 08:58:04;;;;;;;41.47;30.77;;;;;;;27.52;22.84;101367.91;6281759;22;20022;-86
2022/12/27 09:00:30;;;;;;;39.67;28.65;;;;;;;24.81;25.24;101360.16;6279161;22;20031;-84
2022/12/27 09:05:22;;;;;;;35.35;26.40;;;;;;;22.38;28.73;101343.53;6306152;22;20766;-85
2022/12/27 09:08:00;;;;;;;39.92;25.58;;;;;;;24.41;26.40;101366.28;6281512;22;20007;-86
2022/12/27 09:10:27;;;;;;;48.55;24.80;;;;;;;24.76;26.00;101360.88;6253191;22;20701;-86
2022/12/27 09:12:53;;;;;;;38.83;20.55;;;;;;;24.55;25.83;101362.28;6277979;22;20011;-85
2022/12/27 09:15:20;;;;;;;26.45;18.63;;;;;;;25.36;25.16;101354.28;6279678;22;20045;-88
2022/12/27 09:17:45;;;;;;;23.92;17.70;;;;;;;26.46;23.90;101356.94;6224926;22;20224;-86
2022/12/27 09:20:12;;;;;;;26.75;16.52;;;;;;;26.17;23.46;101347.88;6254517;22;20003;-86
2022/12/27 09:22:39;;;;;;;24.92;16.33;;;;;;;25.85;23.73;101349.22;6279611;22;20010;-87
2022/12/27 09:25:08;;;;;;;22.50;15.25;;;;;;;26.10;23.27;101342.50;6253739;22;20027;-86
2022/12/27 09:27:38;;;;;;;20.67;15.88;;;;;;;27.15;22.41;101335.38;6279658;22;20328;-86
2022/12/27 09:30:07;;;;;;;29.42;15.93;;;;;;;28.41;21.24;101335.41;6308037;22;20042;-85
2022/12/27 09:32:36;;;;;;;35.72;17.60;;;;;;;29.64;20.49;101322.28;6309472;22;20010;-85
2022/12/27 09:35:04;;;;;;;23.55;17.48;;;;;;;28.89;19.65;101313.34;6284184;22;20018;-86
2022/12/27 09:37:33;;;;;;;29.73;17.55;;;;;;;29.31;19.47;101305.00;6305872;22;20098;-86
2022/12/27 09:40:06;;;;;;;27.23;17.33;;;;;;;30.24;19.20;101319.91;6305772;22;20338;-85
2022/12/27 09:42:55;;;;;;;25.42;16.33;;;;;;;30.80;17.95;101308.78;6277668;22;20015;-90
2022/12/27 09:45:47;;;;;;;22.60;14.68;;;;;;;30.30;18.39;101316.09;6280617;22;20091;-86
2022/12/27 09:48:21;;;;;;;19.95;13.07;;;;;;;31.00;18.02;101307.09;6272658;22;20007;-86
2022/12/27 09:50:53;;;;;;;20.15;11.98;;;;;;;30.40;18.24;101315.25;6304351;22;20129;-86
2022/12/27 09:53:41;;;;;;;17.75;10.82;;;;;;;30.92;17.74;101289.91;6304943;22;20015;-85
2022/12/27 09:56:08;;;;;;;20.05;13.57;;;;;;;31.23;17.21;101289.78;6278951;22;20007;-86
2022/12/27 09:58:37;;;;;;;17.42;12.27;;;;;;;31.25;17.70;101292.28;6255818;22;20045;-87
2022/12/27 10:01:19;;;;;;;20.40;12.43;;;;;;;31.87;17.19;101292.81;6306940;22;19995;-84
2022/12/27 10:03:52;;;;;;;23.48;14.70;;;;;;;32.63;16.38;101282.16;6309244;22;20011;-84
2022/12/27 10:06:38;;;;;;;23.10;15.07;;;;;;;33.08;16.39;101282.78;6281130;22;19996;-87
2022/12/27 10:09:28;;;;;;;17.27;14.05;;;;;;;32.76;16.45;101287.88;6283392;22;20006;-85
2022/12/27 10:12:04;;;;;;;21.15;13.52;;;;;;;33.57;15.57;101284.38;6281155;22;20058;-84
2022/12/27 10:15:02;;;;;;;20.63;14.30;;;;;;;32.45;16.57;101280.91;6254854;22;19999;-85
2022/12/27 10:17:42;;;;;;;18.98;13.55;;;;;;;32.73;16.24;101262.56;6311208;22;20030;-87
2022/12/27 10:20:41;;;;;;;17.38;13.35;;;;;;;32.45;16.56;101265.06;6299900;22;19998;-90
2022/12/27 10:23:31;;;;;;;19.00;11.80;;;;;;;32.68;16.54;101259.84;6317370;22;20416;-87
2022/12/27 10:26:10;;;;;;;23.98;11.38;;;;;;;33.15;16.26;101241.47;6285970;22;20030;-85
2022/12/27 10:29:04;;;;;;;17.20;9.15;;;;;;;33.57;15.47;101256.50;6280697;22;20032;-85
2022/12/27 10:31:31;;;;;;;16.95;8.63;;;;;;;32.13;16.34;101230.31;6284245;22;20082;-85
2022/12/27 10:33:58;;;;;;;14.38;8.90;;;;;;;32.36;16.36;101212.00;6229956;22;20073;-85
2022/12/27 10:37:05;;;;;;;14.68;10.18;;;;;;;32.53;16.00;101236.63;6264557;22;20034;-86
2022/12/27 10:40:01;;;;;;;17.55;10.07;;;;;;;29.57;18.73;101194.28;6321987;22;20074;-90
2022/12/27 10:42:40;;;;;;;17.10;9.88;;;;;;;29.82;18.67;101210.97;6264260;22;20014;-84
2022/12/27 10:45:41;;;;;;;17.38;11.05;;;;;;;30.48;18.43;101232.28;6282087;22;20003;-89
2022/12/27 10:48:17;;;;;;;19.08;11.75;;;;;;;31.28;17.96;101231.47;6292296;22;20007;-88
2022/12/27 10:51:16;;;;;;;18.85;11.68;;;;;;;31.02;17.83;101202.13;6318561;22;20052;-89
2022/12/27 10:54:10;;;;;;;20.30;11.85;;;;;;;31.02;18.02;101188.25;6240743;22;20019;-88
2022/12/27 10:56:44;;;;;;;16.67;11.18;;;;;;;31.14;17.68;101197.09;6288380;22;20074;-88
2022/12/27 10:59:47;;;;;;;21.42;11.13;;;;;;;30.75;17.87;101181.16;6312883;22;20030;-89
2022/12/27 11:02:24;;;;;;;14.57;9.68;;;;;;;30.88;17.97;101177.81;6266098;22;20003;-86
2022/12/27 11:05:05;;;;;;;16.67;9.32;;;;;;;31.10;17.78;101173.78;6265909;22;20041;-87
2022/12/27 11:07:33;;;;;;;12.27;8.80;;;;;;;31.07;17.72;101188.22;6230125;22;20046;-85
2022/12/27 11:10:24;;;;;;;13.25;8.75;;;;;;;31.24;17.61;101160.94;6249261;22;20070;-87
2022/12/27 11:13:07;;;;;;;12.90;8.93;;;;;;;31.87;17.60;101184.38;6250485;22;20153;-87
2022/12/27 11:15:43;;;;;;;13.68;9.02;;;;;;;31.71;17.22;101165.03;6281089;22;20003;-86
2022/12/27 11:18:56;;;;;;;14.88;9.13;;;;;;;31.98;17.47;101147.03;6295597;22;20114;-92
2022/12/27 11:25:49;;;;;;;19.38;10.05;;;;;;;30.50;18.53;101119.09;6201818;22;20045;-91
2022/12/27 11:29:12;;;;;;;18.27;14.13;;;;;;;31.14;18.49;101136.00;6271760;22;20249;-90
2022/12/27 11:31:54;;;;;;;;;;;;;;;31.33;18.53;101161.16;6297032;22;20004;-91
2022/12/27 11:34:50;;;;;;;20.23;12.63;;;;;;;30.53;18.83;101116.84;6281551;22;19903;-90
2022/12/27 11:37:50;;;;;;;17.90;9.75;;;;;;;30.37;19.40;101122.47;6278482;22;20007;-90
2022/12/27 11:40:45;;;;;;;11.55;7.97;;;;;;;28.89;20.59;101128.78;6274211;22;20265;-89
2022/12/27 11:43:50;;;;;;;11.00;7.85;;;;;;;29.13;20.27;101114.50;6269392;22;20042;-90
2022/12/27 11:46:50;;;;;;;18.50;9.10;;;;;;;29.17;21.08;101127.53;6297499;22;20023;-87
2022/12/27 11:49:54;;;;;;;14.82;9.23;;;;;;;29.30;20.35;101108.69;6269174;22;20011;-88
2022/12/27 11:53:43;;;;;;;;;;;;;;;;;;;;;
2022/12/27 11:59:15;;;;;;;18.70;10.77;;;;;;;27.51;22.70;101134.31;6283743;22;20011;-89
2022/12/27 12:05:54;;;;;;;15.63;10.65;;;;;;;26.28;24.38;101137.50;6304866;22;20019;-92
2022/12/27 12:09:11;;;;;;;16.60;11.27;;;;;;;25.75;25.31;101128.69;6297935;22;20069;-92
2022/12/27 12:21:19;;;;;;;20.25;12.35;;;;;;;25.58;25.91;101119.59;6264815;22;20019;-92
2022/12/27 12:25:06;;;;;;;18.02;11.75;;;;;;;25.04;26.20;101076.81;6298398;22;20067;-92
2022/12/27 12:57:04;;;;;;;18.10;3.60;;;;;;;18.54;39.12;101155.00;6319341;22;20008;-91
2022/12/27 13:30:06;;;;;;;8.27;4.03;;;;;;;16.25;46.28;101148.50;6269597;22;20037;-91
2022/12/27 13:38:50;;;;;;;7.53;3.60;;;;;;;16.35;46.22;101163.66;6305517;22;20074;-90
2022/12/27 13:44:26;;;;;;;5.95;3.72;;;;;;;15.98;47.03;101179.78;6243263;22;20015;-86
2022/12/27 13:47:06;;;;;;;6.78;3.55;;;;;;;15.83;47.32;101179.75;6269457;22;20063;-87
2022/12/27 13:50:09;;;;;;;8.95;3.92;;;;;;;15.74;47.93;101175.41;6235552;22;20012;-87
2022/12/27 13:53:14;;;;;;;11.35;3.65;;;;;;;15.66;48.10;101170.03;6292944;22;20003;-88
2022/12/27 13:55:51;;;;;;;6.90;3.83;;;;;;;15.54;48.25;101185.03;6247951;22;20007;-86
2022/12/27 13:58:35;;;;;;;9.18;3.90;;;;;;;15.40;48.39;101175.81;6289297;22;20049;-89
2022/12/27 14:01:49;;;;;;;9.45;3.88;;;;;;;15.36;48.38;101194.31;6247113;22;20075;-90
2022/12/27 14:04:27;;;;;;;7.70;3.75;;;;;;;15.35;48.65;101189.91;6261643;22;20015;-85
2022/12/27 14:07:16;;;;;;;8.05;3.70;;;;;;;15.31;48.65;101183.19;6281996;22;20097;-86
2022/12/27 14:10:09;;;;;;;6.00;3.65;;;;;;;15.33;48.71;101207.34;6258013;22;19999;-86
2022/12/27 14:12:58;;;;;;;7.00;3.75;;;;;;;15.30;48.53;101202.31;6278919;22;20007;-88
2022/12/27 14:15:42;;;;;;;6.50;3.72;;;;;;;15.28;48.75;101198.94;6291038;22;19991;-92
2022/12/27 14:18:51;;;;;;;6.38;3.92;;;;;;;15.22;48.91;101205.91;6264463;22;20023;-90
2022/12/27 14:22:03;;;;;;;7.65;4.30;;;;;;;14.90;49.22;101177.13;6293260;22;20064;-86
2022/12/27 14:25:16;;;;;;;7.95;3.72;;;;;;;14.90;49.44;101186.09;6295114;22;20011;-87
2022/12/27 14:31:33;;;;;;;7.95;4.28;;;;;;;14.98;49.86;101221.28;6325949;22;20042;-87
2022/12/27 14:34:53;;;;;;;7.55;4.25;;;;;;;14.83;50.55;101227.59;6314432;22;20004;-86
2022/12/27 14:37:34;;;;;;;7.22;4.32;;;;;;;14.76;50.53;101216.63;6215437;22;20075;-86
2022/12/27 14:40:02;;;;;;;7.57;4.38;;;;;;;14.81;50.55;101225.03;6299897;22;20010;-89
2022/12/27 14:42:54;;;;;;;6.53;4.23;;;;;;;14.66;51.11;101215.97;6328088;22;20003;-87
2022/12/27 14:45:57;;;;;;;8.27;4.72;;;;;;;14.69;51.27;101232.69;6296446;22;20233;-87
2022/12/27 14:48:38;;;;;;;7.97;4.88;;;;;;;14.56;51.43;101246.78;6326989;22;19995;-86
2022/12/27 14:51:31;;;;;;;8.65;4.97;;;;;;;14.52;51.89;101250.81;6325595;22;20078;-88
2022/12/27 14:54:34;;;;;;;7.15;4.93;;;;;;;14.49;51.95;101251.16;6311269;22;20007;-86
2022/12/27 14:57:31;;;;;;;8.10;5.10;;;;;;;14.46;51.78;101256.91;6282545;22;20011;-85
2022/12/27 15:00:16;;;;;;;8.82;5.10;;;;;;;14.36;51.93;101242.72;6304126;22;20011;-87
2022/12/27 15:03:03;;;;;;;9.18;5.40;;;;;;;14.34;52.03;101253.72;6281861;22;20357;-86
2022/12/27 15:05:39;;;;;;;7.70;5.18;;;;;;;14.07;52.64;101248.66;6281452;22;20030;-83
2022/12/27 15:08:23;;;;;;;8.38;5.40;;;;;;;14.27;52.38;101273.50;6307390;22;20004;-84
2022/12/27 15:11:25;;;;;;;9.75;5.13;;;;;;;14.13;52.81;101275.03;6309189;22;20062;-85
2022/12/27 15:14:18;;;;;;;10.43;5.15;;;;;;;14.15;52.72;101290.06;6283899;22;20022;-85
2022/12/27 15:17:16;;;;;;;10.60;5.45;;;;;;;14.03;53.14;101296.84;6302352;22;19999;-85
2022/12/27 15:20:00;;;;;;;9.60;5.40;;;;;;;13.88;53.48;101314.72;6307730;22;20014;-84
2022/12/27 15:22:56;;;;;;;7.90;5.40;;;;;;;13.66;53.92;101306.22;6306704;22;20322;-84
2022/12/27 15:25:37;;;;;;;9.00;5.60;;;;;;;13.68;54.51;101328.53;6317800;22;20003;-87
2022/12/27 15:28:37;;;;;;;8.45;5.68;;;;;;;13.72;54.51;101321.78;6311253;22;20015;-88
2022/12/27 15:31:28;;;;;;;10.38;6.05;;;;;;;13.47;54.96;101293.03;6269398;22;20420;-86
2022/12/27 15:34:48;;;;;;;10.45;6.45;;;;;;;13.54;55.07;101323.75;6259319;22;20475;-86
2022/12/27 15:37:55;;;;;;;14.70;6.43;;;;;;;13.40;55.48;101325.25;6167974;23;20009;-87
2022/12/27 15:40:29;;;;;;;10.73;6.20;;;;;;;13.30;56.00;101336.19;6169693;23;20064;-88